Owensboro Daviess County Airport
KOWB : now visible

Airfield :











YOU CAN JOIN US ON...

 
LOGIN :

Register | Disclaimer

   EN    FR    IT 

 









Legend :    VFR   Marginal VFR   IFR   Intensive IFR   Very Intensive IFR
Visi :
Ceiling :
>= 8 km
>= 3000ft
5 to 8 km
1000 to 3000 ft
1500m to 5 km
500 to 1000 ft
800 to 1500m
200 to 500 ft
< 800m
< 200 ft
Symbols :   Thunderstorms  Fog  Heavy snow  Heavy precipitations  Wind > 20 kt






- Airport Elevation : 407 ft
- IATA code : OWB


KOWB - Owensboro Daviess County

CURRENT METAR :
  • 261533Z 19013KT 6SM -TSRA BR OVC013 19/18 A2974 RMK AO2 PK WND 23027/1457 LTG DSNT ALQDS OCNL LTGICCG OHD TS OHD MOV NE P0008

EXPIRED METARs :
  • 261456Z 23021G27KT 1 1/2SM +TSRA BR OVC011 18/18 A2976 RMK AO2 PK WND 21038/1446 LTG DSNT ALQDS TSB03 SLP074 FRQ LTGCGIC OHD TS OHD MOV NE P0021 60021 T01830178 55003
  • 261438Z 20010KT 1SM TSRA BR OVC037 22/21 A2976 RMK AO2 LTG DSNT ALQDS TSB03 OCNL LTGCGIC OHD TS OHD MOV NE P0006
  • 261403Z 16010KT 5SM -TSRA BR BKN040 OVC070 22/21 A2973 RMK AO2 LTG DSNT W-N TSB03 OCNL LTGCG W TS W MOV NE P0000
  • 261256Z COR 14008KT 8SM BKN041 22/21 A2974 RMK AO2 SLP068 T02220206
  • 261156Z COR 15007KT 10SM BKN060 22/21 A2977 RMK AO2 SLP077 T02220206 10222 20211 55010
  • 261056Z 13007KT 8SM BKN035 BKN043 22/21 A2976 RMK AO2 SLP074 T02170206

TAF KOWB
Valid from the 26 at 15:00 until the 27 at 12:00 UTC


261505Z 2615/2712 15007KT P6SM SCT015 BKN035
TEMPO 2615/2617 21015KT 1SM TSRA BR BKN015CB
FM261800 20012KT 4SM SHRA BR OVC060
TEMPO 2618/2620 3SM TSRA BR OVC015CB
FM262000 18014G22KT P6SM BKN090
FM270400 22012KT 6SM SHRA BR VCTS SCT025CB BKN140
KZID FIR / North America



MET'MAP, your aeronautical weather chart ! - Copyright ORBIFLY December 2007 - Disclaimer

ORBIFLY MET'MAP TEAM :

Programming & Development : Alexandra Zaïnal
Original concept : Baudouin d'Aumeries
Technical & hardware support : Manuel Goepfert
Assistance : Marc-Olivier Méhu




SOURCES & CREDITS :

   NOAA       Earth
Advisory